sensor_id;sensor_type;location;lat;lon;timestamp;temperature;humidity
53286;DHT22;39171;45.550;12.074;2023-06-14T00:03:27;23.70;78.30
53286;DHT22;39171;45.550;12.074;2023-06-14T00:09:29;23.70;78.50
53286;DHT22;39171;45.550;12.074;2023-06-14T00:15:34;23.70;78.60
53286;DHT22;39171;45.550;12.074;2023-06-14T00:21:36;23.60;78.80
53286;DHT22;39171;45.550;12.074;2023-06-14T00:27:37;23.60;78.70
53286;DHT22;39171;45.550;12.074;2023-06-14T00:33:39;23.60;78.70
53286;DHT22;39171;45.550;12.074;2023-06-14T00:39:40;23.60;79.00
53286;DHT22;39171;45.550;12.074;2023-06-14T00:45:44;23.60;79.00
53286;DHT22;39171;45.550;12.074;2023-06-14T00:51:46;23.60;79.10
53286;DHT22;39171;45.550;12.074;2023-06-14T00:57:48;23.60;79.10
53286;DHT22;39171;45.550;12.074;2023-06-14T01:03:50;23.50;79.20
53286;DHT22;39171;45.550;12.074;2023-06-14T01:16:22;23.50;79.40
53286;DHT22;39171;45.550;12.074;2023-06-14T01:22:26;23.50;79.40
53286;DHT22;39171;45.550;12.074;2023-06-14T01:28:31;23.50;79.40
53286;DHT22;39171;45.550;12.074;2023-06-14T01:34:34;23.50;79.60
53286;DHT22;39171;45.550;12.074;2023-06-14T01:40:36;23.50;79.80
53286;DHT22;39171;45.550;12.074;2023-06-14T01:46:38;23.50;80.20
53286;DHT22;39171;45.550;12.074;2023-06-14T01:52:39;23.40;80.00
53286;DHT22;39171;45.550;12.074;2023-06-14T01:58:41;23.50;79.90
53286;DHT22;39171;45.550;12.074;2023-06-14T02:04:42;23.50;80.10
53286;DHT22;39171;45.550;12.074;2023-06-14T02:10:44;23.40;80.30
53286;DHT22;39171;45.550;12.074;2023-06-14T02:16:45;23.40;80.30
53286;DHT22;39171;45.550;12.074;2023-06-14T02:22:50;23.40;80.30
53286;DHT22;39171;45.550;12.074;2023-06-14T02:28:51;23.50;80.20
53286;DHT22;39171;45.550;12.074;2023-06-14T02:34:53;23.50;80.30
53286;DHT22;39171;45.550;12.074;2023-06-14T02:40:54;23.40;80.20
53286;DHT22;39171;45.550;12.074;2023-06-14T02:46:56;23.40;80.40
53286;DHT22;39171;45.550;12.074;2023-06-14T02:52:57;23.40;80.70
53286;DHT22;39171;45.550;12.074;2023-06-14T02:58:59;23.40;80.60
53286;DHT22;39171;45.550;12.074;2023-06-14T03:05:01;23.40;80.60
53286;DHT22;39171;45.550;12.074;2023-06-14T03:11:05;23.40;80.80
53286;DHT22;39171;45.550;12.074;2023-06-14T03:17:08;23.40;80.70
53286;DHT22;39171;45.550;12.074;2023-06-14T03:23:13;23.40;80.80
53286;DHT22;39171;45.550;12.074;2023-06-14T03:29:16;23.30;81.30
53286;DHT22;39171;45.550;12.074;2023-06-14T03:35:18;23.40;81.50
53286;DHT22;39171;45.550;12.074;2023-06-14T03:41:22;23.40;81.20
53286;DHT22;39171;45.550;12.074;2023-06-14T03:47:25;23.30;81.00
53286;DHT22;39171;45.550;12.074;2023-06-14T03:53:27;23.30;81.10
53286;DHT22;39171;45.550;12.074;2023-06-14T03:59:30;23.30;81.00
53286;DHT22;39171;45.550;12.074;2023-06-14T04:05:33;23.30;81.30
53286;DHT22;39171;45.550;12.074;2023-06-14T04:11:35;23.30;81.30
53286;DHT22;39171;45.550;12.074;2023-06-14T04:17:38;23.30;81.20
53286;DHT22;39171;45.550;12.074;2023-06-14T04:23:40;23.30;81.10
53286;DHT22;39171;45.550;12.074;2023-06-14T04:29:45;23.30;81.20
53286;DHT22;39171;45.550;12.074;2023-06-14T04:35:54;23.20;81.40
53286;DHT22;39171;45.550;12.074;2023-06-14T04:41:58;23.30;81.50
53286;DHT22;39171;45.550;12.074;2023-06-14T04:48:03;23.30;81.50
53286;DHT22;39171;45.550;12.074;2023-06-14T04:54:04;23.30;81.50
53286;DHT22;39171;45.550;12.074;2023-06-14T05:00:07;23.20;81.80
53286;DHT22;39171;45.550;12.074;2023-06-14T05:06:09;23.30;81.70
53286;DHT22;39171;45.550;12.074;2023-06-14T05:12:10;23.20;81.60
53286;DHT22;39171;45.550;12.074;2023-06-14T05:18:12;23.30;81.60
53286;DHT22;39171;45.550;12.074;2023-06-14T05:24:14;23.20;81.60
53286;DHT22;39171;45.550;12.074;2023-06-14T05:30:16;23.20;81.50
53286;DHT22;39171;45.550;12.074;2023-06-14T05:36:18;23.30;81.50
53286;DHT22;39171;45.550;12.074;2023-06-14T05:42:19;23.30;81.50
53286;DHT22;39171;45.550;12.074;2023-06-14T05:48:21;23.30;81.50
53286;DHT22;39171;45.550;12.074;2023-06-14T05:54:22;23.30;81.50
53286;DHT22;39171;45.550;12.074;2023-06-14T06:00:23;23.30;81.50
53286;DHT22;39171;45.550;12.074;2023-06-14T06:06:25;23.30;81.40
53286;DHT22;39171;45.550;12.074;2023-06-14T06:12:26;23.30;81.30
53286;DHT22;39171;45.550;12.074;2023-06-14T06:18:28;23.30;81.40
53286;DHT22;39171;45.550;12.074;2023-06-14T06:24:29;23.30;81.30
53286;DHT22;39171;45.550;12.074;2023-06-14T06:30:30;23.30;81.30
53286;DHT22;39171;45.550;12.074;2023-06-14T06:36:32;23.30;81.30
53286;DHT22;39171;45.550;12.074;2023-06-14T06:42:33;23.30;81.20
53286;DHT22;39171;45.550;12.074;2023-06-14T06:48:38;23.30;81.20
53286;DHT22;39171;45.550;12.074;2023-06-14T06:54:39;23.30;81.20
53286;DHT22;39171;45.550;12.074;2023-06-14T07:00:41;23.30;81.40
53286;DHT22;39171;45.550;12.074;2023-06-14T07:06:42;23.30;81.10
53286;DHT22;39171;45.550;12.074;2023-06-14T07:12:44;23.30;81.40
53286;DHT22;39171;45.550;12.074;2023-06-14T07:18:46;23.30;81.30
53286;DHT22;39171;45.550;12.074;2023-06-14T07:24:47;23.30;81.20
53286;DHT22;39171;45.550;12.074;2023-06-14T07:30:49;23.30;81.10
53286;DHT22;39171;45.550;12.074;2023-06-14T07:36:50;23.30;80.90
53286;DHT22;39171;45.550;12.074;2023-06-14T07:42:52;23.30;80.60
53286;DHT22;39171;45.550;12.074;2023-06-14T07:48:55;23.30;80.90
53286;DHT22;39171;45.550;12.074;2023-06-14T07:54:56;23.30;80.40
53286;DHT22;39171;45.550;12.074;2023-06-14T08:00:58;23.30;80.20
53286;DHT22;39171;45.550;12.074;2023-06-14T08:07:00;23.40;79.90
53286;DHT22;39171;45.550;12.074;2023-06-14T08:13:02;23.40;79.80
53286;DHT22;39171;45.550;12.074;2023-06-14T08:19:03;23.50;79.80
53286;DHT22;39171;45.550;12.074;2023-06-14T08:25:05;23.50;79.70
53286;DHT22;39171;45.550;12.074;2023-06-14T08:31:09;23.50;79.60
53286;DHT22;39171;45.550;12.074;2023-06-14T08:37:10;23.50;79.70
53286;DHT22;39171;45.550;12.074;2023-06-14T08:43:11;23.50;79.50
53286;DHT22;39171;45.550;12.074;2023-06-14T08:49:13;23.50;79.80
53286;DHT22;39171;45.550;12.074;2023-06-14T08:55:17;23.50;79.40
53286;DHT22;39171;45.550;12.074;2023-06-14T09:01:18;23.50;78.60
53286;DHT22;39171;45.550;12.074;2023-06-14T09:07:22;23.50;77.90
53286;DHT22;39171;45.550;12.074;2023-06-14T09:13:24;23.60;78.10
53286;DHT22;39171;45.550;12.074;2023-06-14T09:19:26;23.60;78.10
53286;DHT22;39171;45.550;12.074;2023-06-14T09:25:27;23.70;77.80
53286;DHT22;39171;45.550;12.074;2023-06-14T09:31:29;23.70;77.60
53286;DHT22;39171;45.550;12.074;2023-06-14T09:37:33;23.70;77.30
53286;DHT22;39171;45.550;12.074;2023-06-14T09:43:34;23.70;76.90
53286;DHT22;39171;45.550;12.074;2023-06-14T09:49:36;23.70;77.00
53286;DHT22;39171;45.550;12.074;2023-06-14T09:55:40;23.70;76.70
53286;DHT22;39171;45.550;12.074;2023-06-14T10:01:42;23.80;76.00
53286;DHT22;39171;45.550;12.074;2023-06-14T10:07:58;23.80;75.70
53286;DHT22;39171;45.550;12.074;2023-06-14T10:14:02;23.80;75.20
53286;DHT22;39171;45.550;12.074;2023-06-14T10:20:39;23.90;74.80
53286;DHT22;39171;45.550;12.074;2023-06-14T10:26:54;23.90;74.40
53286;DHT22;39171;45.550;12.074;2023-06-14T10:33:04;24.00;73.90
53286;DHT22;39171;45.550;12.074;2023-06-14T10:39:17;24.00;73.40
53286;DHT22;39171;45.550;12.074;2023-06-14T10:45:20;24.00;73.40
53286;DHT22;39171;45.550;12.074;2023-06-14T10:51:22;24.10;72.90
53286;DHT22;39171;45.550;12.074;2023-06-14T10:57:23;24.10;72.40
53286;DHT22;39171;45.550;12.074;2023-06-14T11:03:51;24.10;71.90
53286;DHT22;39171;45.550;12.074;2023-06-14T11:16:16;24.20;70.50
53286;DHT22;39171;45.550;12.074;2023-06-14T11:22:17;24.20;70.40
53286;DHT22;39171;45.550;12.074;2023-06-14T11:28:19;24.20;70.10
53286;DHT22;39171;45.550;12.074;2023-06-14T11:34:24;24.30;69.30
53286;DHT22;39171;45.550;12.074;2023-06-14T11:40:26;24.30;68.80
53286;DHT22;39171;45.550;12.074;2023-06-14T11:46:29;24.30;68.30
53286;DHT22;39171;45.550;12.074;2023-06-14T11:52:31;24.40;67.60
53286;DHT22;39171;45.550;12.074;2023-06-14T11:58:33;24.40;67.20
53286;DHT22;39171;45.550;12.074;2023-06-14T12:04:37;24.40;66.60
53286;DHT22;39171;45.550;12.074;2023-06-14T12:10:41;24.40;66.60
53286;DHT22;39171;45.550;12.074;2023-06-14T12:16:44;24.40;66.20
53286;DHT22;39171;45.550;12.074;2023-06-14T12:22:57;24.50;65.90
53286;DHT22;39171;45.550;12.074;2023-06-14T12:28:59;24.50;65.30
53286;DHT22;39171;45.550;12.074;2023-06-14T12:35:00;24.60;64.90
53286;DHT22;39171;45.550;12.074;2023-06-14T12:41:02;24.60;64.20
53286;DHT22;39171;45.550;12.074;2023-06-14T12:47:04;24.60;63.80
53286;DHT22;39171;45.550;12.074;2023-06-14T12:53:05;24.60;63.50
53286;DHT22;39171;45.550;12.074;2023-06-14T12:59:06;24.70;62.80
53286;DHT22;39171;45.550;12.074;2023-06-14T13:05:08;24.70;62.00
53286;DHT22;39171;45.550;12.074;2023-06-14T13:11:10;24.80;60.90
53286;DHT22;39171;45.550;12.074;2023-06-14T13:17:11;24.80;60.00
53286;DHT22;39171;45.550;12.074;2023-06-14T13:23:16;24.80;59.30
53286;DHT22;39171;45.550;12.074;2023-06-14T13:29:17;24.90;58.90
53286;DHT22;39171;45.550;12.074;2023-06-14T13:35:19;25.00;58.40
53286;DHT22;39171;45.550;12.074;2023-06-14T13:41:21;25.00;57.90
53286;DHT22;39171;45.550;12.074;2023-06-14T13:47:22;25.10;57.20
53286;DHT22;39171;45.550;12.074;2023-06-14T13:53:23;25.10;56.90
53286;DHT22;39171;45.550;12.074;2023-06-14T13:59:25;25.20;56.60
53286;DHT22;39171;45.550;12.074;2023-06-14T14:05:26;25.20;56.50
53286;DHT22;39171;45.550;12.074;2023-06-14T14:11:30;25.20;56.60
53286;DHT22;39171;45.550;12.074;2023-06-14T14:17:37;25.10;56.40
53286;DHT22;39171;45.550;12.074;2023-06-14T14:23:38;25.20;56.70
53286;DHT22;39171;45.550;12.074;2023-06-14T14:29:40;25.30;57.10
53286;DHT22;39171;45.550;12.074;2023-06-14T14:35:43;25.30;57.50
53286;DHT22;39171;45.550;12.074;2023-06-14T14:41:45;25.30;57.80
53286;DHT22;39171;45.550;12.074;2023-06-14T14:47:46;25.30;58.00
53286;DHT22;39171;45.550;12.074;2023-06-14T14:53:48;25.30;58.00
53286;DHT22;39171;45.550;12.074;2023-06-14T14:59:49;25.30;58.20
53286;DHT22;39171;45.550;12.074;2023-06-14T15:05:51;25.30;58.40
53286;DHT22;39171;45.550;12.074;2023-06-14T15:11:52;25.30;58.50
53286;DHT22;39171;45.550;12.074;2023-06-14T15:17:53;25.30;58.70
53286;DHT22;39171;45.550;12.074;2023-06-14T15:23:55;25.20;59.00
53286;DHT22;39171;45.550;12.074;2023-06-14T15:29:56;25.20;59.20
53286;DHT22;39171;45.550;12.074;2023-06-14T15:35:58;25.20;59.40
53286;DHT22;39171;45.550;12.074;2023-06-14T15:42:00;25.20;59.30
53286;DHT22;39171;45.550;12.074;2023-06-14T15:48:01;25.20;59.30
53286;DHT22;39171;45.550;12.074;2023-06-14T15:54:03;25.10;59.30
53286;DHT22;39171;45.550;12.074;2023-06-14T16:00:05;25.20;59.10
53286;DHT22;39171;45.550;12.074;2023-06-14T16:06:06;25.20;59.00
53286;DHT22;39171;45.550;12.074;2023-06-14T16:12:08;25.10;58.70
53286;DHT22;39171;45.550;12.074;2023-06-14T16:18:10;25.10;58.40
53286;DHT22;39171;45.550;12.074;2023-06-14T16:24:11;25.10;58.20
53286;DHT22;39171;45.550;12.074;2023-06-14T16:30:18;25.10;58.40
53286;DHT22;39171;45.550;12.074;2023-06-14T16:36:25;25.00;58.20
53286;DHT22;39171;45.550;12.074;2023-06-14T16:42:32;25.00;58.00
53286;DHT22;39171;45.550;12.074;2023-06-14T16:48:34;25.00;57.80
53286;DHT22;39171;45.550;12.074;2023-06-14T16:54:40;25.00;57.50
53286;DHT22;39171;45.550;12.074;2023-06-14T17:00:42;25.00;57.70
53286;DHT22;39171;45.550;12.074;2023-06-14T17:06:44;24.90;57.70
53286;DHT22;39171;45.550;12.074;2023-06-14T17:12:52;24.90;57.50
53286;DHT22;39171;45.550;12.074;2023-06-14T17:18:58;24.90;57.30
53286;DHT22;39171;45.550;12.074;2023-06-14T17:25:03;24.90;57.30
53286;DHT22;39171;45.550;12.074;2023-06-14T17:31:12;24.90;57.30
53286;DHT22;39171;45.550;12.074;2023-06-14T17:37:13;24.80;57.30
53286;DHT22;39171;45.550;12.074;2023-06-14T17:43:15;24.80;57.50
53286;DHT22;39171;45.550;12.074;2023-06-14T17:49:17;24.80;57.60
53286;DHT22;39171;45.550;12.074;2023-06-14T17:55:24;24.70;57.70
53286;DHT22;39171;45.550;12.074;2023-06-14T18:01:28;24.80;57.90
53286;DHT22;39171;45.550;12.074;2023-06-14T18:07:33;24.70;58.20
53286;DHT22;39171;45.550;12.074;2023-06-14T18:13:35;24.70;58.30
53286;DHT22;39171;45.550;12.074;2023-06-14T18:19:36;24.70;58.50
53286;DHT22;39171;45.550;12.074;2023-06-14T18:25:38;24.70;58.60
53286;DHT22;39171;45.550;12.074;2023-06-14T18:31:39;24.70;58.70
53286;DHT22;39171;45.550;12.074;2023-06-14T18:37:42;24.70;58.90
53286;DHT22;39171;45.550;12.074;2023-06-14T18:43:43;24.70;59.10
53286;DHT22;39171;45.550;12.074;2023-06-14T18:49:45;24.60;59.20
53286;DHT22;39171;45.550;12.074;2023-06-14T18:55:46;24.60;59.20
53286;DHT22;39171;45.550;12.074;2023-06-14T19:01:48;24.60;59.50
53286;DHT22;39171;45.550;12.074;2023-06-14T19:07:49;24.60;59.70
53286;DHT22;39171;45.550;12.074;2023-06-14T19:13:54;24.60;60.00
53286;DHT22;39171;45.550;12.074;2023-06-14T19:19:56;24.50;60.20
53286;DHT22;39171;45.550;12.074;2023-06-14T19:25:58;24.50;60.40
53286;DHT22;39171;45.550;12.074;2023-06-14T19:32:03;24.50;60.60
53286;DHT22;39171;45.550;12.074;2023-06-14T19:38:05;24.40;61.00
53286;DHT22;39171;45.550;12.074;2023-06-14T19:44:07;24.40;61.30
53286;DHT22;39171;45.550;12.074;2023-06-14T19:50:14;24.40;61.60
53286;DHT22;39171;45.550;12.074;2023-06-14T19:56:17;24.40;61.90
53286;DHT22;39171;45.550;12.074;2023-06-14T20:02:21;24.40;62.30
53286;DHT22;39171;45.550;12.074;2023-06-14T20:08:23;24.40;62.60
53286;DHT22;39171;45.550;12.074;2023-06-14T20:14:25;24.30;62.90
53286;DHT22;39171;45.550;12.074;2023-06-14T20:20:30;24.30;63.20
53286;DHT22;39171;45.550;12.074;2023-06-14T20:26:31;24.40;63.40
53286;DHT22;39171;45.550;12.074;2023-06-14T20:32:34;24.30;63.70
53286;DHT22;39171;45.550;12.074;2023-06-14T20:38:39;24.30;64.50
53286;DHT22;39171;45.550;12.074;2023-06-14T20:44:41;24.20;64.40
53286;DHT22;39171;45.550;12.074;2023-06-14T20:50:42;24.30;65.00
53286;DHT22;39171;45.550;12.074;2023-06-14T20:56:44;24.30;65.60
53286;DHT22;39171;45.550;12.074;2023-06-14T21:02:45;24.30;66.50
53286;DHT22;39171;45.550;12.074;2023-06-14T21:08:48;24.30;67.40
53286;DHT22;39171;45.550;12.074;2023-06-14T21:14:50;24.20;67.60
53286;DHT22;39171;45.550;12.074;2023-06-14T21:20:52;24.20;68.50
53286;DHT22;39171;45.550;12.074;2023-06-14T21:26:53;24.20;68.90
53286;DHT22;39171;45.550;12.074;2023-06-14T21:32:59;24.20;69.30
53286;DHT22;39171;45.550;12.074;2023-06-14T21:39:01;24.20;69.90
53286;DHT22;39171;45.550;12.074;2023-06-14T21:45:02;24.10;70.20
53286;DHT22;39171;45.550;12.074;2023-06-14T21:51:10;24.10;70.40
53286;DHT22;39171;45.550;12.074;2023-06-14T21:57:11;24.10;70.80
53286;DHT22;39171;45.550;12.074;2023-06-14T22:03:13;24.20;70.90
53286;DHT22;39171;45.550;12.074;2023-06-14T22:09:14;24.10;71.60
53286;DHT22;39171;45.550;12.074;2023-06-14T22:15:17;24.10;72.10
53286;DHT22;39171;45.550;12.074;2023-06-14T22:21:18;24.00;72.90
53286;DHT22;39171;45.550;12.074;2023-06-14T22:27:21;24.00;73.00
53286;DHT22;39171;45.550;12.074;2023-06-14T22:33:23;24.00;73.50
53286;DHT22;39171;45.550;12.074;2023-06-14T22:39:26;23.90;73.70
53286;DHT22;39171;45.550;12.074;2023-06-14T22:45:27;24.00;74.10
53286;DHT22;39171;45.550;12.074;2023-06-14T22:51:29;23.90;74.70
53286;DHT22;39171;45.550;12.074;2023-06-14T22:57:31;23.90;75.00
53286;DHT22;39171;45.550;12.074;2023-06-14T23:03:32;23.90;75.50
53286;DHT22;39171;45.550;12.074;2023-06-14T23:09:40;23.90;75.80
53286;DHT22;39171;45.550;12.074;2023-06-14T23:15:43;23.90;76.10
53286;DHT22;39171;45.550;12.074;2023-06-14T23:21:44;23.90;76.30
53286;DHT22;39171;45.550;12.074;2023-06-14T23:27:49;23.90;76.20
53286;DHT22;39171;45.550;12.074;2023-06-14T23:33:50;23.90;76.50
53286;DHT22;39171;45.550;12.074;2023-06-14T23:39:53;23.90;76.70
53286;DHT22;39171;45.550;12.074;2023-06-14T23:45:55;23.90;76.80
53286;DHT22;39171;45.550;12.074;2023-06-14T23:51:58;23.90;77.10
53286;DHT22;39171;45.550;12.074;2023-06-14T23:58:03;23.90;77.10
